sensor_id;sensor_type;location;lat;lon;timestamp;pressure;altitude;pressure_sealevel;temperature;humidity
61324;BME280;47203;48.428;11.974;2023-03-25T00:00:03;96258.97;;;13.60;49.15
61324;BME280;47203;48.428;11.974;2023-03-25T00:02:14;96259.78;;;13.61;49.12
61324;BME280;47203;48.428;11.974;2023-03-25T00:04:19;96253.97;;;13.59;49.17
61324;BME280;47203;48.428;11.974;2023-03-25T00:06:28;96248.69;;;13.59;49.33
61324;BME280;47203;48.428;11.974;2023-03-25T00:08:35;96242.63;;;13.58;49.06
61324;BME280;47203;48.428;11.974;2023-03-25T00:10:40;96242.63;;;13.58;49.40
61324;BME280;47203;48.428;11.974;2023-03-25T00:12:48;96252.41;;;13.58;49.08
61324;BME280;47203;48.428;11.974;2023-03-25T00:14:55;96253.22;;;13.58;49.17
61324;BME280;47203;48.428;11.974;2023-03-25T00:17:00;96250.88;;;13.57;49.41
61324;BME280;47203;48.428;11.974;2023-03-25T00:19:05;96257.44;;;13.59;49.13
61324;BME280;47203;48.428;11.974;2023-03-25T00:21:10;96253.22;;;13.58;49.06
61324;BME280;47203;48.428;11.974;2023-03-25T00:23:15;96251.03;;;13.60;49.08
61324;BME280;47203;48.428;11.974;2023-03-25T00:25:20;96256.34;;;13.60;49.13
61324;BME280;47203;48.428;11.974;2023-03-25T00:27:25;96243.91;;;13.61;49.22
61324;BME280;47203;48.428;11.974;2023-03-25T00:29:33;96242.03;;;13.61;48.98
61324;BME280;47203;48.428;11.974;2023-03-25T00:31:38;96241.28;;;13.61;48.98
61324;BME280;47203;48.428;11.974;2023-03-25T00:33:43;96245.75;;;13.60;49.13
61324;BME280;47203;48.428;11.974;2023-03-25T00:35:50;96241.34;;;13.56;48.90
61324;BME280;47203;48.428;11.974;2023-03-25T00:38:00;96244.59;;;13.53;48.83
61324;BME280;47203;48.428;11.974;2023-03-25T00:40:07;96244.88;;;13.51;48.90
61324;BME280;47203;48.428;11.974;2023-03-25T00:42:14;96242.53;;;13.50;49.15
61324;BME280;47203;48.428;11.974;2023-03-25T00:44:27;96235.97;;;13.47;49.12
61324;BME280;47203;48.428;11.974;2023-03-25T00:46:35;96232.25;;;13.48;49.07
61324;BME280;47203;48.428;11.974;2023-03-25T00:48:40;96234.91;;;13.48;48.88
61324;BME280;47203;48.428;11.974;2023-03-25T00:50:45;96235.69;;;13.49;48.67
61324;BME280;47203;48.428;11.974;2023-03-25T00:52:51;96241.78;;;13.49;48.85
61324;BME280;47203;48.428;11.974;2023-03-25T00:54:56;96229.31;;;13.50;49.02
61324;BME280;47203;48.428;11.974;2023-03-25T00:57:02;96227.16;;;13.52;48.95
61324;BME280;47203;48.428;11.974;2023-03-25T00:59:07;96231.38;;;13.53;49.11
61324;BME280;47203;48.428;11.974;2023-03-25T01:01:15;96231.19;;;13.49;48.68
61324;BME280;47203;48.428;11.974;2023-03-25T01:03:27;96241.25;;;13.47;48.83
61324;BME280;47203;48.428;11.974;2023-03-25T01:05:32;96238.91;;;13.46;48.66
61324;BME280;47203;48.428;11.974;2023-03-25T01:07:38;96239.22;;;13.44;48.81
61324;BME280;47203;48.428;11.974;2023-03-25T01:09:43;96250.84;;;13.43;48.79
61324;BME280;47203;48.428;11.974;2023-03-25T01:11:49;96245.56;;;13.43;48.63
61324;BME280;47203;48.428;11.974;2023-03-25T01:13:55;96233.91;;;13.44;48.72
61324;BME280;47203;48.428;11.974;2023-03-25T01:16:00;96242.91;;;13.43;48.90
61324;BME280;47203;48.428;11.974;2023-03-25T01:18:09;96242.44;;;13.41;48.84
61324;BME280;47203;48.428;11.974;2023-03-25T01:20:18;96240.97;;;13.35;48.59
61324;BME280;47203;48.428;11.974;2023-03-25T01:22:22;96240.25;;;13.29;48.99
61324;BME280;47203;48.428;11.974;2023-03-25T01:24:28;96237.41;;;13.25;48.82
61324;BME280;47203;48.428;11.974;2023-03-25T01:26:33;96237.69;;;13.24;49.02
61324;BME280;47203;48.428;11.974;2023-03-25T01:28:39;96230.88;;;13.23;48.78
61324;BME280;47203;48.428;11.974;2023-03-25T01:30:44;96230.06;;;13.22;48.74
61324;BME280;47203;48.428;11.974;2023-03-25T01:32:49;96224.00;;;13.22;48.54
61324;BME280;47203;48.428;11.974;2023-03-25T01:34:54;96227.41;;;13.22;48.77
61324;BME280;47203;48.428;11.974;2023-03-25T01:37:02;96218.22;;;13.20;48.90
61324;BME280;47203;48.428;11.974;2023-03-25T01:39:08;96229.06;;;13.18;48.82
61324;BME280;47203;48.428;11.974;2023-03-25T01:41:13;96226.44;;;13.18;48.72
61324;BME280;47203;48.428;11.974;2023-03-25T01:43:18;96220.84;;;13.20;48.94
61324;BME280;47203;48.428;11.974;2023-03-25T01:45:26;96208.75;;;13.19;48.70
61324;BME280;47203;48.428;11.974;2023-03-25T01:47:33;96209.50;;;13.19;48.81
61324;BME280;47203;48.428;11.974;2023-03-25T01:49:40;96205.81;;;13.20;48.86
61324;BME280;47203;48.428;11.974;2023-03-25T01:51:48;96203.94;;;13.21;48.69
61324;BME280;47203;48.428;11.974;2023-03-25T01:53:57;96204.69;;;13.21;48.68
61324;BME280;47203;48.428;11.974;2023-03-25T01:56:05;96207.56;;;13.25;48.75
61324;BME280;47203;48.428;11.974;2023-03-25T01:58:15;96199.63;;;13.25;48.58
61324;BME280;47203;48.428;11.974;2023-03-25T02:00:21;96197.47;;;13.27;48.93
61324;BME280;47203;48.428;11.974;2023-03-25T02:02:27;96190.63;;;13.26;48.75
61324;BME280;47203;48.428;11.974;2023-03-25T02:04:42;96201.50;;;13.24;48.80
61324;BME280;47203;48.428;11.974;2023-03-25T02:06:51;96198.34;;;13.22;48.89
61324;BME280;47203;48.428;11.974;2023-03-25T02:09:02;96198.34;;;13.22;48.76
61324;BME280;47203;48.428;11.974;2023-03-25T02:11:10;96212.38;;;13.23;48.91
61324;BME280;47203;48.428;11.974;2023-03-25T02:13:15;96202.06;;;13.21;48.97
61324;BME280;47203;48.428;11.974;2023-03-25T02:15:20;96199.72;;;13.20;48.81
61324;BME280;47203;48.428;11.974;2023-03-25T02:17:31;96197.38;;;13.18;48.75
61324;BME280;47203;48.428;11.974;2023-03-25T02:20:03;96187.38;;;13.15;49.02
61324;BME280;47203;48.428;11.974;2023-03-25T02:22:46;96188.28;;;13.10;48.82
61324;BME280;47203;48.428;11.974;2023-03-25T02:25:17;96183.34;;;13.04;48.83
61324;BME280;47203;48.428;11.974;2023-03-25T02:27:40;96188.16;;;13.02;49.04
61324;BME280;47203;48.428;11.974;2023-03-25T02:29:56;96177.88;;;13.00;49.05
61324;BME280;47203;48.428;11.974;2023-03-25T02:32:17;96178.19;;;12.99;49.18
61324;BME280;47203;48.428;11.974;2023-03-25T02:34:51;96172.13;;;12.98;49.23
61324;BME280;47203;48.428;11.974;2023-03-25T02:37:17;96173.97;;;12.98;49.00
61324;BME280;47203;48.428;11.974;2023-03-25T02:39:34;96181.88;;;12.98;49.10
61324;BME280;47203;48.428;11.974;2023-03-25T02:41:46;96173.97;;;12.98;48.72
61324;BME280;47203;48.428;11.974;2023-03-25T02:43:57;96170.56;;;12.97;48.85
61324;BME280;47203;48.428;11.974;2023-03-25T02:46:08;96172.41;;;12.97;48.92
61324;BME280;47203;48.428;11.974;2023-03-25T02:48:18;96168.50;;;12.94;48.65
61324;BME280;47203;48.428;11.974;2023-03-25T02:50:29;96173.56;;;12.90;49.06
61324;BME280;47203;48.428;11.974;2023-03-25T02:52:39;96170.63;;;12.92;48.96
61324;BME280;47203;48.428;11.974;2023-03-25T02:54:50;96177.00;;;12.91;48.85
61324;BME280;47203;48.428;11.974;2023-03-25T02:56:59;96178.56;;;12.92;48.83
61324;BME280;47203;48.428;11.974;2023-03-25T02:59:05;96170.34;;;12.93;48.85
61324;BME280;47203;48.428;11.974;2023-03-25T03:01:15;96173.50;;;12.96;48.95
61324;BME280;47203;48.428;11.974;2023-03-25T03:03:20;96179.25;;;12.98;48.99
61324;BME280;47203;48.428;11.974;2023-03-25T03:05:27;96181.88;;;12.98;48.58
61324;BME280;47203;48.428;11.974;2023-03-25T03:07:34;96189.03;;;12.97;48.51
61324;BME280;47203;48.428;11.974;2023-03-25T03:09:44;96185.63;;;12.97;48.51
61324;BME280;47203;48.428;11.974;2023-03-25T03:11:59;96187.47;;;12.96;48.87
61324;BME280;47203;48.428;11.974;2023-03-25T03:14:24;96184.34;;;12.94;48.73
61324;BME280;47203;48.428;11.974;2023-03-25T03:16:34;96196.19;;;12.97;48.78
61324;BME280;47203;48.428;11.974;2023-03-25T03:18:43;96187.47;;;12.96;48.61
61324;BME280;47203;48.428;11.974;2023-03-25T03:20:56;96201.25;;;12.93;48.88
61324;BME280;47203;48.428;11.974;2023-03-25T03:23:10;96207.91;;;12.90;48.89
61324;BME280;47203;48.428;11.974;2023-03-25T03:25:27;96201.38;;;12.88;49.00
61324;BME280;47203;48.428;11.974;2023-03-25T03:27:39;96192.34;;;12.89;48.68
61324;BME280;47203;48.428;11.974;2023-03-25T03:29:47;96195.88;;;12.84;48.96
61324;BME280;47203;48.428;11.974;2023-03-25T03:31:57;96204.00;;;12.88;49.10
61324;BME280;47203;48.428;11.974;2023-03-25T03:34:09;96203.44;;;12.91;48.67
61324;BME280;47203;48.428;11.974;2023-03-25T03:36:17;96195.50;;;12.91;48.91
61324;BME280;47203;48.428;11.974;2023-03-25T03:38:26;96201.56;;;12.91;48.77
61324;BME280;47203;48.428;11.974;2023-03-25T03:40:35;96189.41;;;12.90;48.92
61324;BME280;47203;48.428;11.974;2023-03-25T03:42:46;96189.41;;;12.90;48.64
61324;BME280;47203;48.428;11.974;2023-03-25T03:44:57;96199.50;;;12.88;48.79
61324;BME280;47203;48.428;11.974;2023-03-25T03:47:06;96204.00;;;12.88;48.57
61324;BME280;47203;48.428;11.974;2023-03-25T03:49:15;96199.22;;;12.90;48.67
61324;BME280;47203;48.428;11.974;2023-03-25T03:51:24;96205.78;;;12.92;48.52
61324;BME280;47203;48.428;11.974;2023-03-25T03:53:34;96207.31;;;12.93;48.84
61324;BME280;47203;48.428;11.974;2023-03-25T03:55:42;96201.75;;;12.95;48.74
61324;BME280;47203;48.428;11.974;2023-03-25T03:57:54;96208.91;;;12.95;48.83
61324;BME280;47203;48.428;11.974;2023-03-25T04:00:05;96200.69;;;12.96;48.67
61324;BME280;47203;48.428;11.974;2023-03-25T04:02:16;96204.28;;;12.86;48.59
61324;BME280;47203;48.428;11.974;2023-03-25T04:04:25;96199.69;;;12.92;48.81
61324;BME280;47203;48.428;11.974;2023-03-25T04:06:36;96198.91;;;12.91;48.42
61324;BME280;47203;48.428;11.974;2023-03-25T04:08:51;96201.84;;;12.90;48.59
61324;BME280;47203;48.428;11.974;2023-03-25T04:11:01;96198.44;;;12.89;48.71
61324;BME280;47203;48.428;11.974;2023-03-25T04:13:14;96198.72;;;12.88;48.80
61324;BME280;47203;48.428;11.974;2023-03-25T04:15:21;96198.22;;;12.86;48.63
61324;BME280;47203;48.428;11.974;2023-03-25T04:17:26;96198.81;;;12.83;48.49
61324;BME280;47203;48.428;11.974;2023-03-25T04:19:34;96205.44;;;12.80;48.68
61324;BME280;47203;48.428;11.974;2023-03-25T04:21:39;96201.03;;;12.75;48.51
61324;BME280;47203;48.428;11.974;2023-03-25T04:23:44;96193.69;;;12.72;48.34
61324;BME280;47203;48.428;11.974;2023-03-25T04:25:50;96210.91;;;12.70;48.29
61324;BME280;47203;48.428;11.974;2023-03-25T04:27:56;96193.78;;;12.67;48.73
61324;BME280;47203;48.428;11.974;2023-03-25T04:30:06;96195.94;;;12.65;48.53
61324;BME280;47203;48.428;11.974;2023-03-25T04:32:11;96189.88;;;12.65;48.32
61324;BME280;47203;48.428;11.974;2023-03-25T04:34:19;96198.09;;;12.63;48.63
61324;BME280;47203;48.428;11.974;2023-03-25T04:36:24;96199.94;;;12.63;48.58
61324;BME280;47203;48.428;11.974;2023-03-25T04:38:29;96218.69;;;12.61;48.63
61324;BME280;47203;48.428;11.974;2023-03-25T04:40:34;96224.28;;;12.60;48.26
61324;BME280;47203;48.428;11.974;2023-03-25T04:42:41;96230.59;;;12.58;48.53
61324;BME280;47203;48.428;11.974;2023-03-25T04:44:47;96220.91;;;12.54;48.60
61324;BME280;47203;48.428;11.974;2023-03-25T04:46:55;96224.94;;;12.51;48.48
61324;BME280;47203;48.428;11.974;2023-03-25T04:49:00;96236.84;;;12.49;48.41
61324;BME280;47203;48.428;11.974;2023-03-25T04:51:07;96238.50;;;12.45;48.46
61324;BME280;47203;48.428;11.974;2023-03-25T04:53:13;96238.00;;;12.43;48.57
61324;BME280;47203;48.428;11.974;2023-03-25T04:55:18;96232.72;;;12.43;48.43
61324;BME280;47203;48.428;11.974;2023-03-25T04:57:23;96229.81;;;12.44;48.30
61324;BME280;47203;48.428;11.974;2023-03-25T04:59:29;96221.88;;;12.44;48.52
61324;BME280;47203;48.428;11.974;2023-03-25T05:01:34;96235.56;;;12.46;48.43
61324;BME280;47203;48.428;11.974;2023-03-25T05:03:46;96235.56;;;12.46;48.27
61324;BME280;47203;48.428;11.974;2023-03-25T05:05:51;96226.59;;;12.47;48.37
61324;BME280;47203;48.428;11.974;2023-03-25T05:07:57;96237.63;;;12.49;48.43
61324;BME280;47203;48.428;11.974;2023-03-25T05:10:02;96229.72;;;12.49;48.36
61324;BME280;47203;48.428;11.974;2023-03-25T05:12:10;96226.28;;;12.49;48.61
61324;BME280;47203;48.428;11.974;2023-03-25T05:14:16;96232.06;;;12.51;48.53
61324;BME280;47203;48.428;11.974;2023-03-25T05:16:22;96229.13;;;12.52;48.33
61324;BME280;47203;48.428;11.974;2023-03-25T05:18:27;96220.44;;;12.52;48.47
61324;BME280;47203;48.428;11.974;2023-03-25T05:20:42;96227.28;;;12.53;48.31
61324;BME280;47203;48.428;11.974;2023-03-25T05:22:47;96234.13;;;12.54;48.37
61324;BME280;47203;48.428;11.974;2023-03-25T05:24:54;96236.47;;;12.55;48.12
61324;BME280;47203;48.428;11.974;2023-03-25T05:26:59;96229.66;;;12.54;48.09
61324;BME280;47203;48.428;11.974;2023-03-25T05:29:07;96223.06;;;12.52;48.38
61324;BME280;47203;48.428;11.974;2023-03-25T05:31:15;96226.50;;;12.52;48.29
61324;BME280;47203;48.428;11.974;2023-03-25T05:33:19;96222.31;;;12.51;48.32
61324;BME280;47203;48.428;11.974;2023-03-25T05:35:25;96234.69;;;12.51;48.08
61324;BME280;47203;48.428;11.974;2023-03-25T05:37:33;96237.91;;;12.48;48.26
61324;BME280;47203;48.428;11.974;2023-03-25T05:39:38;96236.63;;;12.45;48.21
61324;BME280;47203;48.428;11.974;2023-03-25T05:41:46;96240.56;;;12.48;48.12
61324;BME280;47203;48.428;11.974;2023-03-25T05:43:51;96241.34;;;12.48;48.27
61324;BME280;47203;48.428;11.974;2023-03-25T05:45:56;96239.97;;;12.51;48.29
61324;BME280;47203;48.428;11.974;2023-03-25T05:48:01;96242.03;;;12.54;48.07
61324;BME280;47203;48.428;11.974;2023-03-25T05:50:07;96246.75;;;12.57;48.16
61324;BME280;47203;48.428;11.974;2023-03-25T05:52:13;96244.63;;;12.59;48.12
61324;BME280;47203;48.428;11.974;2023-03-25T05:54:21;96247.75;;;12.61;48.12
61324;BME280;47203;48.428;11.974;2023-03-25T05:56:27;96250.59;;;12.65;47.99
61324;BME280;47203;48.428;11.974;2023-03-25T05:58:32;96253.72;;;12.67;48.08
61324;BME280;47203;48.428;11.974;2023-03-25T06:00:37;96253.44;;;12.68;48.15
61324;BME280;47203;48.428;11.974;2023-03-25T06:02:43;96245.44;;;12.73;48.00
61324;BME280;47203;48.428;11.974;2023-03-25T06:04:49;96247.50;;;12.77;48.32
61324;BME280;47203;48.428;11.974;2023-03-25T06:06:55;96251.44;;;12.79;47.84
61324;BME280;47203;48.428;11.974;2023-03-25T06:09:01;96261.91;;;12.84;47.88
61324;BME280;47203;48.428;11.974;2023-03-25T06:11:09;96265.03;;;12.86;47.98
61324;BME280;47203;48.428;11.974;2023-03-25T06:13:14;96267.88;;;12.90;47.76
61324;BME280;47203;48.428;11.974;2023-03-25T06:15:20;96267.28;;;12.93;47.84
61324;BME280;47203;48.428;11.974;2023-03-25T06:17:35;96267.28;;;12.93;47.85
61324;BME280;47203;48.428;11.974;2023-03-25T06:19:41;96275.69;;;12.95;47.96
61324;BME280;47203;48.428;11.974;2023-03-25T06:21:45;96274.34;;;12.98;47.96
61324;BME280;47203;48.428;11.974;2023-03-25T06:23:52;96277.50;;;13.00;47.70
61324;BME280;47203;48.428;11.974;2023-03-25T06:25:58;96275.34;;;13.02;47.55
61324;BME280;47203;48.428;11.974;2023-03-25T06:28:07;96280.44;;;12.98;47.35
61324;BME280;47203;48.428;11.974;2023-03-25T06:30:14;96268.28;;;12.97;47.39
61324;BME280;47203;48.428;11.974;2023-03-25T06:32:19;96276.00;;;12.93;47.72
61324;BME280;47203;48.428;11.974;2023-03-25T06:34:26;96286.56;;;12.93;47.67
61324;BME280;47203;48.428;11.974;2023-03-25T06:36:33;96283.91;;;12.93;47.46
61324;BME280;47203;48.428;11.974;2023-03-25T06:38:39;96277.09;;;12.92;47.45
61324;BME280;47203;48.428;11.974;2023-03-25T06:40:47;96283.72;;;12.90;47.48
61324;BME280;47203;48.428;11.974;2023-03-25T06:42:52;96283.50;;;12.86;47.20
61324;BME280;47203;48.428;11.974;2023-03-25T06:45:18;96286.91;;;12.73;47.74
61324;BME280;47203;48.428;11.974;2023-03-25T06:47:40;96292.19;;;12.73;47.87
61324;BME280;47203;48.428;11.974;2023-03-25T06:49:45;96287.88;;;12.77;47.50
61324;BME280;47203;48.428;11.974;2023-03-25T06:51:50;96290.19;;;12.84;47.37
61324;BME280;47203;48.428;11.974;2023-03-25T06:53:55;96298.50;;;12.91;47.56
61324;BME280;47203;48.428;11.974;2023-03-25T06:56:00;96300.75;;;12.98;47.09
61324;BME280;47203;48.428;11.974;2023-03-25T06:58:05;96308.69;;;12.98;47.05
61324;BME280;47203;48.428;11.974;2023-03-25T07:00:11;96311.63;;;12.96;46.96
61324;BME280;47203;48.428;11.974;2023-03-25T07:02:18;96303.00;;;12.90;47.11
61324;BME280;47203;48.428;11.974;2023-03-25T07:04:23;96318.34;;;12.88;46.87
61324;BME280;47203;48.428;11.974;2023-03-25T07:06:28;96314.94;;;12.88;46.94
61324;BME280;47203;48.428;11.974;2023-03-25T07:08:34;96322.34;;;12.86;46.89
61324;BME280;47203;48.428;11.974;2023-03-25T07:10:39;96322.94;;;12.83;47.03
61324;BME280;47203;48.428;11.974;2023-03-25T07:12:44;96333.28;;;12.79;46.74
61324;BME280;47203;48.428;11.974;2023-03-25T07:14:50;96328.56;;;12.76;46.84
61324;BME280;47203;48.428;11.974;2023-03-25T07:16:56;96350.78;;;12.75;47.00
61324;BME280;47203;48.428;11.974;2023-03-25T07:19:03;96343.44;;;12.72;46.87
61324;BME280;47203;48.428;11.974;2023-03-25T07:21:08;96349.50;;;12.72;46.82
61324;BME280;47203;48.428;11.974;2023-03-25T07:23:13;96336.78;;;12.74;47.02
61324;BME280;47203;48.428;11.974;2023-03-25T07:25:18;96348.13;;;12.75;46.88
61324;BME280;47203;48.428;11.974;2023-03-25T07:27:24;96352.63;;;12.74;46.85
61324;BME280;47203;48.428;11.974;2023-03-25T07:29:37;96345.50;;;12.75;46.85
61324;BME280;47203;48.428;11.974;2023-03-25T07:31:42;96353.91;;;12.77;46.90
61324;BME280;47203;48.428;11.974;2023-03-25T07:33:47;96350.69;;;12.80;46.54
61324;BME280;47203;48.428;11.974;2023-03-25T07:35:55;96357.56;;;12.81;46.70
61324;BME280;47203;48.428;11.974;2023-03-25T07:38:00;96357.75;;;12.85;46.39
61324;BME280;47203;48.428;11.974;2023-03-25T07:40:06;96361.19;;;12.85;46.22
61324;BME280;47203;48.428;11.974;2023-03-25T07:42:12;96373.31;;;12.86;46.14
61324;BME280;47203;48.428;11.974;2023-03-25T07:44:49;96368.31;;;12.85;46.24
61324;BME280;47203;48.428;11.974;2023-03-25T07:46:54;96383.31;;;12.89;46.06
61324;BME280;47203;48.428;11.974;2023-03-25T07:48:59;96362.88;;;12.95;46.03
61324;BME280;47203;48.428;11.974;2023-03-25T07:51:07;96366.94;;;13.06;45.73
61324;BME280;47203;48.428;11.974;2023-03-25T07:53:12;96361.63;;;13.25;45.49
61324;BME280;47203;48.428;11.974;2023-03-25T07:55:17;96380.91;;;13.45;45.18
61324;BME280;47203;48.428;11.974;2023-03-25T07:57:22;96388.38;;;13.57;44.92
61324;BME280;47203;48.428;11.974;2023-03-25T07:59:27;96374.56;;;13.60;44.57
61324;BME280;47203;48.428;11.974;2023-03-25T08:01:32;96396.47;;;13.60;44.41
61324;BME280;47203;48.428;11.974;2023-03-25T08:03:37;96370.84;;;13.61;44.10
61324;BME280;47203;48.428;11.974;2023-03-25T08:05:44;96371.81;;;13.65;44.50
61324;BME280;47203;48.428;11.974;2023-03-25T08:07:53;96383.38;;;13.69;44.25
61324;BME280;47203;48.428;11.974;2023-03-25T08:10:01;96387.50;;;13.75;44.02
61324;BME280;47203;48.428;11.974;2023-03-25T08:12:07;96389.06;;;13.76;43.93
61324;BME280;47203;48.428;11.974;2023-03-25T08:14:12;96369.84;;;13.71;43.90
61324;BME280;47203;48.428;11.974;2023-03-25T08:16:17;96394.06;;;13.64;43.87
61324;BME280;47203;48.428;11.974;2023-03-25T08:18:22;96390.19;;;13.56;44.16
61324;BME280;47203;48.428;11.974;2023-03-25T08:20:28;96356.72;;;13.52;44.20
61324;BME280;47203;48.428;11.974;2023-03-25T08:22:32;96374.84;;;13.58;44.28
61324;BME280;47203;48.428;11.974;2023-03-25T08:24:40;96372.22;;;13.72;44.28
61324;BME280;47203;48.428;11.974;2023-03-25T08:26:45;96369.78;;;13.90;44.20
61324;BME280;47203;48.428;11.974;2023-03-25T08:28:50;96369.09;;;13.98;43.82
61324;BME280;47203;48.428;11.974;2023-03-25T08:30:56;96364.56;;;13.99;43.89
61324;BME280;47203;48.428;11.974;2023-03-25T08:33:03;96369.66;;;14.09;43.74
61324;BME280;47203;48.428;11.974;2023-03-25T08:35:08;96365.94;;;14.24;43.76
61324;BME280;47203;48.428;11.974;2023-03-25T08:37:13;96361.22;;;14.35;43.47
61324;BME280;47203;48.428;11.974;2023-03-25T08:39:18;96360.91;;;14.50;43.50
61324;BME280;47203;48.428;11.974;2023-03-25T08:41:33;96357.16;;;14.65;42.73
61324;BME280;47203;48.428;11.974;2023-03-25T08:43:39;96379.44;;;14.64;42.69
61324;BME280;47203;48.428;11.974;2023-03-25T08:45:45;96360.69;;;14.60;42.52
61324;BME280;47203;48.428;11.974;2023-03-25T08:47:51;96357.34;;;14.69;42.60
61324;BME280;47203;48.428;11.974;2023-03-25T08:49:56;96356.88;;;14.89;42.61
61324;BME280;47203;48.428;11.974;2023-03-25T08:52:01;96370.75;;;15.09;42.33
61324;BME280;47203;48.428;11.974;2023-03-25T08:54:09;96355.06;;;15.21;42.06
61324;BME280;47203;48.428;11.974;2023-03-25T08:56:14;96368.28;;;15.35;42.01
61324;BME280;47203;48.428;11.974;2023-03-25T08:58:24;96354.59;;;15.50;41.58
61324;BME280;47203;48.428;11.974;2023-03-25T09:00:29;96345.16;;;15.58;41.54
61324;BME280;47203;48.428;11.974;2023-03-25T09:02:34;96355.50;;;15.68;41.62
61324;BME280;47203;48.428;11.974;2023-03-25T09:04:39;96352.97;;;15.95;41.60
61324;BME280;47203;48.428;11.974;2023-03-25T09:06:44;96372.56;;;16.25;41.04
61324;BME280;47203;48.428;11.974;2023-03-25T09:09:10;96359.00;;;16.27;40.60
61324;BME280;47203;48.428;11.974;2023-03-25T09:11:15;96360.50;;;16.19;40.47
61324;BME280;47203;48.428;11.974;2023-03-25T09:13:39;96360.66;;;16.05;40.52
61324;BME280;47203;48.428;11.974;2023-03-25T09:15:44;96356.41;;;15.95;40.69
61324;BME280;47203;48.428;11.974;2023-03-25T09:17:50;96361.03;;;15.81;41.13
61324;BME280;47203;48.428;11.974;2023-03-25T09:19:55;96362.00;;;15.62;40.53
61324;BME280;47203;48.428;11.974;2023-03-25T09:22:01;96350.38;;;15.41;40.98
61324;BME280;47203;48.428;11.974;2023-03-25T09:24:06;96354.47;;;15.24;41.56
61324;BME280;47203;48.428;11.974;2023-03-25T09:26:13;96352.50;;;15.07;41.54
61324;BME280;47203;48.428;11.974;2023-03-25T09:28:18;96345.97;;;14.91;41.82
61324;BME280;47203;48.428;11.974;2023-03-25T09:30:26;96338.41;;;14.75;41.98
61324;BME280;47203;48.428;11.974;2023-03-25T09:32:31;96331.97;;;14.68;41.98
61324;BME280;47203;48.428;11.974;2023-03-25T09:34:36;96349.03;;;14.61;42.26
61324;BME280;47203;48.428;11.974;2023-03-25T09:36:42;96342.75;;;14.57;42.22
61324;BME280;47203;48.428;11.974;2023-03-25T09:38:46;96338.31;;;14.53;42.25
61324;BME280;47203;48.428;11.974;2023-03-25T09:40:51;96328.34;;;14.49;42.31
61324;BME280;47203;48.428;11.974;2023-03-25T09:43:05;96332.84;;;14.49;42.49
61324;BME280;47203;48.428;11.974;2023-03-25T09:45:24;96343.31;;;14.54;42.19
61324;BME280;47203;48.428;11.974;2023-03-25T09:47:34;96335.19;;;14.51;42.32
61324;BME280;47203;48.428;11.974;2023-03-25T09:49:42;96331.28;;;14.48;42.32
61324;BME280;47203;48.428;11.974;2023-03-25T09:51:50;96341.47;;;14.55;42.71
61324;BME280;47203;48.428;11.974;2023-03-25T09:54:00;96323.22;;;14.67;42.16
61324;BME280;47203;48.428;11.974;2023-03-25T09:56:10;96320.38;;;14.86;42.31
61324;BME280;47203;48.428;11.974;2023-03-25T09:58:25;96317.91;;;15.12;41.90
61324;BME280;47203;48.428;11.974;2023-03-25T10:00:31;96323.88;;;15.49;41.98
61324;BME280;47203;48.428;11.974;2023-03-25T10:02:43;96319.66;;;15.80;41.87
61324;BME280;47203;48.428;11.974;2023-03-25T10:05:09;96310.16;;;15.87;41.18
61324;BME280;47203;48.428;11.974;2023-03-25T10:07:36;96321.75;;;15.92;41.29
61324;BME280;47203;48.428;11.974;2023-03-25T10:09:49;96310.22;;;16.05;41.00
61324;BME280;47203;48.428;11.974;2023-03-25T10:12:00;96316.78;;;16.16;40.91
61324;BME280;47203;48.428;11.974;2023-03-25T10:14:10;96332.13;;;16.28;40.68
61324;BME280;47203;48.428;11.974;2023-03-25T10:16:21;96312.91;;;16.31;40.54
61324;BME280;47203;48.428;11.974;2023-03-25T10:18:42;96314.47;;;16.50;41.04
61324;BME280;47203;48.428;11.974;2023-03-25T10:20:56;96310.91;;;16.81;40.68
61324;BME280;47203;48.428;11.974;2023-03-25T10:23:08;96304.13;;;17.09;40.10
61324;BME280;47203;48.428;11.974;2023-03-25T10:25:18;96302.56;;;17.26;39.87
61324;BME280;47203;48.428;11.974;2023-03-25T10:27:32;96300.00;;;17.38;39.48
61324;BME280;47203;48.428;11.974;2023-03-25T10:29:40;96307.34;;;17.41;39.45
61324;BME280;47203;48.428;11.974;2023-03-25T10:31:50;96308.28;;;17.45;39.27
61324;BME280;47203;48.428;11.974;2023-03-25T10:34:00;96295.09;;;17.49;39.31
61324;BME280;47203;48.428;11.974;2023-03-25T10:36:10;96297.63;;;17.45;40.23
61324;BME280;47203;48.428;11.974;2023-03-25T10:38:21;96292.41;;;17.58;39.48
61324;BME280;47203;48.428;11.974;2023-03-25T10:40:30;96293.16;;;17.67;38.80
61324;BME280;47203;48.428;11.974;2023-03-25T10:42:39;96292.38;;;17.67;39.23
61324;BME280;47203;48.428;11.974;2023-03-25T10:44:48;96290.00;;;17.74;39.13
61324;BME280;47203;48.428;11.974;2023-03-25T10:46:56;96276.78;;;17.86;38.86
61324;BME280;47203;48.428;11.974;2023-03-25T10:49:10;96283.06;;;17.90;38.55
61324;BME280;47203;48.428;11.974;2023-03-25T10:51:18;96284.56;;;18.00;38.30
61324;BME280;47203;48.428;11.974;2023-03-25T10:53:26;96278.41;;;18.08;38.11
61324;BME280;47203;48.428;11.974;2023-03-25T10:55:34;96267.44;;;18.10;37.71
61324;BME280;47203;48.428;11.974;2023-03-25T10:57:42;96272.09;;;18.13;37.88
61324;BME280;47203;48.428;11.974;2023-03-25T10:59:56;96265.38;;;18.16;37.40
61324;BME280;47203;48.428;11.974;2023-03-25T11:02:07;96268.34;;;18.14;37.32
61324;BME280;47203;48.428;11.974;2023-03-25T11:04:20;96256.13;;;18.13;37.28
61324;BME280;47203;48.428;11.974;2023-03-25T11:06:29;96246.34;;;18.05;36.93
61324;BME280;47203;48.428;11.974;2023-03-25T11:08:35;96264.44;;;17.82;36.55
61324;BME280;47203;48.428;11.974;2023-03-25T11:10:41;96245.63;;;17.57;37.14